Time;durP1;ratioP1;P1;durP2;ratioP2;P2;SDS_P1;SDS_P2;PMS_P1;PMS_P2;Temp;Humidity;BMP_temperature;BMP_pressure;BME280_temperature;BME280_humidity;BME280_pressure;Samples;Min_cycle;Max_cycle;Signal;HPM_P1;HPM_P2
2022/06/06 00:02:03;;;;;;;12.35;8.93;;;;;;;;;;5019151;28;20018;-74
2022/06/06 00:04:29;;;;;;;16.10;9.75;;;;;;;;;;5003988;28;20030;-74
2022/06/06 00:06:56;;;;;;;15.43;9.70;;;;;;;;;;5013606;28;20029;-73
2022/06/06 00:09:22;;;;;;;19.10;11.15;;;;;;;;;;5017030;28;20555;-74
2022/06/06 00:11:48;;;;;;;14.60;9.57;;;;;;;;;;5009923;28;20578;-74
2022/06/06 00:14:15;;;;;;;13.25;10.13;;;;;;;;;;5015491;28;20022;-75
2022/06/06 00:16:42;;;;;;;12.98;9.18;;;;;;;;;;5023218;28;20022;-73
2022/06/06 00:19:09;;;;;;;15.38;9.50;;;;;;;;;;5023167;28;20029;-74
2022/06/06 00:21:35;;;;;;;17.23;9.75;;;;;;;;;;5021113;28;20432;-74
2022/06/06 00:24:03;;;;;;;15.70;9.50;;;;;;;;;;5010974;28;20054;-73
2022/06/06 00:26:30;;;;;;;14.40;9.10;;;;;;;;;;5011252;28;20053;-73
2022/06/06 00:28:56;;;;;;;16.88;10.20;;;;;;;;;;5004644;28;20040;-73
2022/06/06 00:36:54;;;;;;;17.73;10.10;;;;;;;;;;5017695;28;20037;-77
2022/06/06 00:39:20;;;;;;;19.48;10.05;;;;;;;;;;5003404;28;20468;-75
2022/06/06 00:41:48;;;;;;;15.18;10.93;;;;;;;;;;5013069;28;20053;-75
2022/06/06 00:44:16;;;;;;;15.50;10.02;;;;;;;;;;4992713;28;20033;-76
2022/06/06 00:47:09;;;;;;;14.07;9.32;;;;;;;;;;5013246;28;20034;-75
2022/06/06 00:49:40;;;;;;;14.90;9.35;;;;;;;;;;5004990;28;20120;-74
2022/06/06 00:52:14;;;;;;;18.08;10.57;;;;;;;;;;5014082;28;20125;-75
2022/06/06 00:54:41;;;;;;;13.87;9.60;;;;;;;;;;5005569;28;20047;-73
2022/06/06 00:57:10;;;;;;;18.95;9.73;;;;;;;;;;5011500;28;20277;-73
2022/06/06 00:59:37;;;;;;;13.50;9.30;;;;;;;;;;5007297;28;20484;-75
2022/06/06 01:02:04;;;;;;;16.73;9.93;;;;;;;;;;5022002;28;20383;-75
2022/06/06 01:04:30;;;;;;;15.60;9.30;;;;;;;;;;5009722;28;20030;-75
2022/06/06 01:06:57;;;;;;;15.23;10.98;;;;;;;;;;5014012;28;20050;-75
2022/06/06 01:09:24;;;;;;;16.15;9.85;;;;;;;;;;5010895;28;20072;-73
2022/06/06 01:11:59;;;;;;;15.90;10.65;;;;;;;;;;5008577;28;20061;-74
2022/06/06 01:14:28;;;;;;;18.85;11.07;;;;;;;;;;5015748;28;20022;-76
2022/06/06 01:17:03;;;;;;;14.77;10.70;;;;;;;;;;5015636;28;20057;-73
2022/06/06 01:19:41;;;;;;;13.10;10.07;;;;;;;;;;5016601;28;20093;-74
2022/06/06 01:22:24;;;;;;;13.93;9.38;;;;;;;;;;5012336;28;20284;-74
2022/06/06 01:24:50;;;;;;;15.95;9.88;;;;;;;;;;5006298;28;20026;-73
2022/06/06 01:27:35;;;;;;;15.63;9.80;;;;;;;;;;5011621;28;20038;-76
2022/06/06 01:30:06;;;;;;;12.33;8.90;;;;;;;;;;5012575;28;20038;-74
2022/06/06 01:32:37;;;;;;;14.85;8.98;;;;;;;;;;5006543;28;20067;-76
2022/06/06 01:35:03;;;;;;;13.02;9.40;;;;;;;;;;5013188;28;20395;-75
2022/06/06 01:37:32;;;;;;;14.23;8.85;;;;;;;;;;5013138;28;20053;-76
2022/06/06 01:39:59;;;;;;;12.57;9.20;;;;;;;;;;5016243;28;20032;-73
2022/06/06 01:42:26;;;;;;;12.68;8.80;;;;;;;;;;5016238;28;20101;-75
2022/06/06 01:45:00;;;;;;;13.05;8.88;;;;;;;;;;5003110;28;20037;-76
2022/06/06 01:47:29;;;;;;;11.77;8.50;;;;;;;;;;5012965;28;20202;-76
2022/06/06 01:49:56;;;;;;;11.80;7.82;;;;;;;;;;5009165;28;20057;-74
2022/06/06 01:52:23;;;;;;;15.85;8.05;;;;;;;;;;5021828;28;20555;-73
2022/06/06 01:54:52;;;;;;;15.68;9.55;;;;;;;;;;5005885;28;20048;-75
2022/06/06 01:57:19;;;;;;;12.90;8.52;;;;;;;;;;5005279;28;20076;-73
2022/06/06 01:59:45;;;;;;;17.40;8.23;;;;;;;;;;5009240;28;20053;-75
2022/06/06 02:02:11;;;;;;;14.30;9.25;;;;;;;;;;5019362;28;20053;-74
2022/06/06 02:04:37;;;;;;;12.02;8.25;;;;;;;;;;5012296;28;20045;-76
2022/06/06 02:07:03;;;;;;;10.27;7.70;;;;;;;;;;5015327;28;20412;-74
2022/06/06 02:09:31;;;;;;;13.10;7.72;;;;;;;;;;5009588;28;20093;-73
2022/06/06 02:11:58;;;;;;;9.20;6.75;;;;;;;;;;5018224;28;20185;-73
2022/06/06 02:14:25;;;;;;;8.75;7.13;;;;;;;;;;5013021;28;20053;-76
2022/06/06 02:16:51;;;;;;;12.32;6.25;;;;;;;;;;5008215;28;20030;-77
2022/06/06 02:19:17;;;;;;;12.40;6.88;;;;;;;;;;5007058;28;20026;-74
2022/06/06 02:21:43;;;;;;;9.60;6.53;;;;;;;;;;5007924;28;20083;-73
2022/06/06 02:24:09;;;;;;;8.52;6.25;;;;;;;;;;5012313;28;20041;-73
2022/06/06 02:26:35;;;;;;;10.73;6.72;;;;;;;;;;5014179;28;20358;-73
2022/06/06 02:29:02;;;;;;;11.85;7.10;;;;;;;;;;5018160;28;20376;-75
2022/06/06 02:31:28;;;;;;;9.38;6.15;;;;;;;;;;4994345;28;20026;-75
2022/06/06 02:33:55;;;;;;;12.20;6.53;;;;;;;;;;5015344;28;20032;-74
2022/06/06 02:36:21;;;;;;;6.45;5.32;;;;;;;;;;5014314;28;20435;-72
2022/06/06 02:38:47;;;;;;;9.35;5.57;;;;;;;;;;5007216;28;20046;-74
2022/06/06 02:41:13;;;;;;;10.77;6.22;;;;;;;;;;5014086;28;20033;-75
2022/06/06 02:43:40;;;;;;;9.10;6.70;;;;;;;;;;5017507;28;20324;-75
2022/06/06 02:46:10;;;;;;;8.88;5.70;;;;;;;;;;5016977;28;20068;-73
2022/06/06 02:48:36;;;;;;;9.15;5.88;;;;;;;;;;5014620;28;20022;-75
2022/06/06 02:51:02;;;;;;;10.00;6.95;;;;;;;;;;5015217;28;20056;-75
2022/06/06 02:53:28;;;;;;;11.70;5.55;;;;;;;;;;5007986;28;20619;-74
2022/06/06 02:55:55;;;;;;;10.18;5.45;;;;;;;;;;5005827;28;20022;-75
2022/06/06 02:58:22;;;;;;;6.32;5.20;;;;;;;;;;5002919;28;20026;-74
2022/06/06 03:00:52;;;;;;;6.18;4.97;;;;;;;;;;5010500;28;20042;-76
2022/06/06 03:03:19;;;;;;;11.35;5.85;;;;;;;;;;5013561;28;20059;-74
2022/06/06 03:06:03;;;;;;;9.55;5.55;;;;;;;;;;5015197;28;20029;-73
2022/06/06 03:08:41;;;;;;;6.07;5.20;;;;;;;;;;5001444;28;20038;-73
2022/06/06 03:11:13;;;;;;;8.50;6.13;;;;;;;;;;5005664;28;20439;-76
2022/06/06 03:14:09;;;;;;;10.55;5.80;;;;;;;;;;5015000;28;20053;-74
2022/06/06 03:22:31;;;;;;;8.15;5.32;;;;;;;;;;5009329;28;20040;-76
2022/06/06 03:25:03;;;;;;;10.57;6.00;;;;;;;;;;5005129;28;20049;-74
2022/06/06 03:27:39;;;;;;;8.27;5.10;;;;;;;;;;5006228;28;20487;-75
2022/06/06 03:30:15;;;;;;;7.80;5.30;;;;;;;;;;4994622;28;20140;-75
2022/06/06 03:32:42;;;;;;;9.68;5.55;;;;;;;;;;5012811;28;20032;-72
2022/06/06 03:35:14;;;;;;;9.00;5.45;;;;;;;;;;5006069;28;20073;-75
2022/06/06 03:37:43;;;;;;;7.55;5.32;;;;;;;;;;5014703;28;20098;-75
2022/06/06 03:40:13;;;;;;;8.25;5.68;;;;;;;;;;5010497;28;20036;-74
2022/06/06 03:42:53;;;;;;;6.13;5.20;;;;;;;;;;5008184;28;20041;-74
2022/06/06 03:45:42;;;;;;;8.20;4.82;;;;;;;;;;5001835;28;20053;-75
2022/06/06 03:48:26;;;;;;;7.20;5.80;;;;;;;;;;4997526;28;20150;-75
2022/06/06 03:50:55;;;;;;;7.03;5.32;;;;;;;;;;5004443;28;20026;-73
2022/06/06 03:53:44;;;;;;;8.10;5.28;;;;;;;;;;5008501;28;20274;-75
2022/06/06 03:56:19;;;;;;;10.15;5.45;;;;;;;;;;5013820;28;20109;-75
2022/06/06 03:58:46;;;;;;;8.75;5.45;;;;;;;;;;5001502;28;20045;-75
2022/06/06 04:01:14;;;;;;;7.35;4.50;;;;;;;;;;4995605;28;20027;-74
2022/06/06 04:03:43;;;;;;;8.63;5.80;;;;;;;;;;5011733;28;20038;-75
2022/06/06 04:06:09;;;;;;;11.07;6.00;;;;;;;;;;5009897;28;20044;-74
2022/06/06 04:08:35;;;;;;;6.78;4.85;;;;;;;;;;4999061;28;20088;-75
2022/06/06 04:11:21;;;;;;;8.40;5.57;;;;;;;;;;5013500;28;20052;-76
2022/06/06 04:13:47;;;;;;;13.20;6.07;;;;;;;;;;5002092;28;20049;-75
2022/06/06 04:16:29;;;;;;;6.20;5.43;;;;;;;;;;4995364;28;20142;-75
2022/06/06 04:19:10;;;;;;;6.97;5.20;;;;;;;;;;4997091;28;20508;-75
2022/06/06 04:21:36;;;;;;;6.97;5.43;;;;;;;;;;5005565;28;20030;-75
2022/06/06 04:24:02;;;;;;;9.13;5.18;;;;;;;;;;5000638;28;20033;-75
2022/06/06 04:26:44;;;;;;;9.13;5.25;;;;;;;;;;5012405;28;20090;-76
2022/06/06 04:29:19;;;;;;;10.55;5.95;;;;;;;;;;4996001;28;20041;-75
2022/06/06 04:31:48;;;;;;;5.30;4.50;;;;;;;;;;5008718;28;20062;-75
2022/06/06 04:34:23;;;;;;;7.15;5.13;;;;;;;;;;5013850;28;20062;-74
2022/06/06 04:36:52;;;;;;;7.60;4.97;;;;;;;;;;5017583;28;20131;-75
2022/06/06 04:39:39;;;;;;;9.77;5.63;;;;;;;;;;5007633;28;20031;-75
2022/06/06 04:42:09;;;;;;;9.40;5.68;;;;;;;;;;5017214;28;20018;-74
2022/06/06 04:44:38;;;;;;;10.68;6.05;;;;;;;;;;5009777;28;20033;-74
2022/06/06 04:47:13;;;;;;;7.78;5.53;;;;;;;;;;5007221;28;20062;-75
2022/06/06 04:49:39;;;;;;;;;;;;;;;;;;5024238;28;20110;-75
2022/06/06 04:52:06;;;;;;;7.88;5.85;;;;;;;;;;5024795;28;20072;-75
2022/06/06 04:54:33;;;;;;;11.20;5.43;;;;;;;;;;5018978;28;20112;-75
2022/06/06 04:57:00;;;;;;;10.80;5.53;;;;;;;;;;5009577;28;20113;-73
2022/06/06 04:59:27;;;;;;;9.90;6.05;;;;;;;;;;5010887;28;20034;-74
2022/06/06 05:01:54;;;;;;;8.07;5.90;;;;;;;;;;5014435;28;20026;-75
2022/06/06 05:04:20;;;;;;;8.95;5.78;;;;;;;;;;5014166;28;20037;-75
2022/06/06 05:06:47;;;;;;;7.03;5.68;;;;;;;;;;5006688;28;20121;-75
2022/06/06 05:09:25;;;;;;;8.30;5.07;;;;;;;;;;5015501;28;20030;-75
2022/06/06 05:12:00;;;;;;;7.07;4.80;;;;;;;;;;5019733;28;20060;-73
2022/06/06 05:14:49;;;;;;;8.57;5.05;;;;;;;;;;5006135;28;20563;-76
2022/06/06 05:17:18;;;;;;;9.18;4.63;;;;;;;;;;5013250;28;20030;-74
2022/06/06 05:19:53;;;;;;;11.50;5.70;;;;;;;;;;5018967;28;20026;-74
2022/06/06 05:22:38;;;;;;;7.55;5.20;;;;;;;;;;5021422;28;20033;-74
2022/06/06 05:25:08;;;;;;;8.57;4.97;;;;;;;;;;5015001;28;20049;-76
2022/06/06 05:27:49;;;;;;;8.02;5.30;;;;;;;;;;5016324;28;20503;-76
2022/06/06 05:30:31;;;;;;;8.35;4.65;;;;;;;;;;5009978;28;20038;-75
2022/06/06 05:33:03;;;;;;;7.60;4.55;;;;;;;;;;5015859;28;20160;-75
2022/06/06 05:35:29;;;;;;;8.00;4.43;;;;;;;;;;5013833;28;20112;-74
2022/06/06 05:38:04;;;;;;;7.20;4.80;;;;;;;;;;5024582;28;20034;-74
2022/06/06 05:40:37;;;;;;;6.78;5.90;;;;;;;;;;5014475;28;20107;-75
2022/06/06 05:43:03;;;;;;;7.65;5.15;;;;;;;;;;5015934;28;20026;-74
2022/06/06 05:45:41;;;;;;;9.15;5.28;;;;;;;;;;5003871;28;20029;-74
2022/06/06 05:48:36;;;;;;;9.27;5.15;;;;;;;;;;5011208;28;21580;-76
2022/06/06 05:51:29;;;;;;;8.27;4.63;;;;;;;;;;5000050;28;20491;-76
2022/06/06 05:54:10;;;;;;;9.23;4.93;;;;;;;;;;5008186;28;20120;-76
2022/06/06 05:56:40;;;;;;;8.13;4.97;;;;;;;;;;5009892;28;20050;-75
2022/06/06 05:59:24;;;;;;;9.25;5.80;;;;;;;;;;5001801;28;20030;-76
2022/06/06 06:01:56;;;;;;;6.73;5.97;;;;;;;;;;5020495;28;20030;-75
2022/06/06 06:04:33;;;;;;;6.80;5.28;;;;;;;;;;5008639;28;20045;-74
2022/06/06 06:06:59;;;;;;;7.57;5.20;;;;;;;;;;5006263;28;20027;-75
2022/06/06 06:09:28;;;;;;;9.70;4.93;;;;;;;;;;5009240;28;20032;-74
2022/06/06 06:11:57;;;;;;;8.75;5.15;;;;;;;;;;5012591;28;20404;-75
2022/06/06 06:14:42;;;;;;;8.85;5.05;;;;;;;;;;5010234;28;20025;-75
2022/06/06 06:17:10;;;;;;;7.65;4.93;;;;;;;;;;5008592;28;20034;-74
2022/06/06 06:19:54;;;;;;;7.13;4.88;;;;;;;;;;5013935;28;20057;-74
2022/06/06 06:22:20;;;;;;;9.75;5.07;;;;;;;;;;5009756;28;20062;-75
2022/06/06 06:24:47;;;;;;;9.27;4.82;;;;;;;;;;5009858;28;20489;-75
2022/06/06 06:27:14;;;;;;;11.93;5.13;;;;;;;;;;5004513;28;20120;-75
2022/06/06 06:29:40;;;;;;;9.25;4.68;;;;;;;;;;5009000;28;20113;-75
2022/06/06 06:32:08;;;;;;;6.60;4.70;;;;;;;;;;5010757;28;20472;-74
2022/06/06 06:34:52;;;;;;;8.60;4.55;;;;;;;;;;5010749;28;20046;-74
2022/06/06 06:37:22;;;;;;;7.22;4.90;;;;;;;;;;5012898;28;20373;-74
2022/06/06 06:39:57;;;;;;;9.15;4.82;;;;;;;;;;5002262;28;20027;-75
2022/06/06 06:42:32;;;;;;;8.88;4.75;;;;;;;;;;5007460;28;20021;-76
2022/06/06 06:44:58;;;;;;;;;;;;;;;;;;5005913;28;20034;-76
2022/06/06 06:47:29;;;;;;;9.05;5.38;;;;;;;;;;5011996;28;20318;-74
2022/06/06 06:50:00;;;;;;;7.50;4.32;;;;;;;;;;5005670;28;20029;-76
2022/06/06 06:52:26;;;;;;;6.03;4.57;;;;;;;;;;5010831;28;20107;-75
2022/06/06 06:54:52;;;;;;;8.52;5.05;;;;;;;;;;5012305;28;20066;-75
2022/06/06 06:57:23;;;;;;;5.43;4.03;;;;;;;;;;5012108;28;20029;-76
2022/06/06 06:59:58;;;;;;;7.97;4.63;;;;;;;;;;5015600;28;20037;-73
2022/06/06 07:08:36;;;;;;;7.22;4.45;;;;;;;;;;5001905;28;20040;-75
2022/06/06 07:11:20;;;;;;;6.32;4.53;;;;;;;;;;5007608;28;20022;-74
2022/06/06 07:14:01;;;;;;;7.97;4.60;;;;;;;;;;5006437;28;20577;-75
2022/06/06 07:16:28;;;;;;;7.80;4.68;;;;;;;;;;5002028;28;20106;-75
2022/06/06 07:19:18;;;;;;;6.03;4.03;;;;;;;;;;5006224;28;20019;-75
2022/06/06 07:21:45;;;;;;;7.22;4.30;;;;;;;;;;5007340;28;20045;-75
2022/06/06 07:24:13;;;;;;;5.57;4.25;;;;;;;;;;5007814;28;20156;-75
2022/06/06 07:26:41;;;;;;;6.22;3.95;;;;;;;;;;5005343;28;20071;-75
2022/06/06 07:29:08;;;;;;;5.85;3.95;;;;;;;;;;5004442;28;20026;-75
2022/06/06 07:31:34;;;;;;;6.38;4.40;;;;;;;;;;5007541;28;20041;-76
2022/06/06 07:34:06;;;;;;;7.03;4.00;;;;;;;;;;5002689;28;20033;-76
2022/06/06 07:36:41;;;;;;;5.20;4.30;;;;;;;;;;4998134;28;20034;-76
2022/06/06 07:39:15;;;;;;;6.35;4.53;;;;;;;;;;5005519;28;20026;-76
2022/06/06 07:41:50;;;;;;;5.35;3.70;;;;;;;;;;5006503;28;20085;-76
2022/06/06 07:44:16;;;;;;;4.65;3.42;;;;;;;;;;5014317;28;20135;-75
2022/06/06 07:46:42;;;;;;;5.45;3.85;;;;;;;;;;5010381;28;20404;-73
2022/06/06 07:49:14;;;;;;;5.25;3.55;;;;;;;;;;5002830;28;20112;-76
2022/06/06 07:51:45;;;;;;;3.88;3.50;;;;;;;;;;5010238;28;20037;-74
2022/06/06 07:54:36;;;;;;;5.30;3.72;;;;;;;;;;5005935;28;20030;-75
2022/06/06 07:57:02;;;;;;;5.15;3.80;;;;;;;;;;5004933;28;20057;-74
2022/06/06 07:59:28;;;;;;;6.68;3.22;;;;;;;;;;5003551;28;20025;-74
2022/06/06 08:02:03;;;;;;;5.13;3.20;;;;;;;;;;5014953;28;20021;-74
2022/06/06 08:04:37;;;;;;;4.40;3.70;;;;;;;;;;5009677;28;20086;-76
2022/06/06 08:07:12;;;;;;;6.65;3.55;;;;;;;;;;5006363;28;20423;-75
2022/06/06 08:09:47;;;;;;;4.55;3.70;;;;;;;;;;5012865;28;20026;-75
2022/06/06 08:12:13;;;;;;;;;;;;;;;;;;5010195;28;20034;-75
2022/06/06 08:15:04;;;;;;;4.70;3.22;;;;;;;;;;5013341;28;19922;-76
2022/06/06 08:17:43;;;;;;;4.93;3.65;;;;;;;;;;5013201;28;20026;-75
2022/06/06 08:20:19;;;;;;;3.35;2.95;;;;;;;;;;5015063;28;20465;-74
2022/06/06 08:22:46;;;;;;;7.78;3.60;;;;;;;;;;5009091;28;20022;-76
2022/06/06 08:25:14;;;;;;;5.07;3.55;;;;;;;;;;5012703;28;20095;-74
2022/06/06 08:27:44;;;;;;;4.78;3.72;;;;;;;;;;5009094;28;20030;-75
2022/06/06 08:30:11;;;;;;;4.63;3.50;;;;;;;;;;5011957;28;20022;-74
2022/06/06 08:32:37;;;;;;;4.95;3.63;;;;;;;;;;5010467;28;20036;-76
2022/06/06 08:35:03;;;;;;;4.53;3.35;;;;;;;;;;5006103;28;20441;-76
2022/06/06 08:37:46;;;;;;;4.72;3.17;;;;;;;;;;5010535;28;20041;-76
2022/06/06 08:40:12;;;;;;;4.78;3.30;;;;;;;;;;5012503;28;20029;-75
2022/06/06 08:42:50;;;;;;;6.10;3.55;;;;;;;;;;5018128;28;20082;-74
2022/06/06 08:45:16;;;;;;;3.33;3.00;;;;;;;;;;5014428;28;20097;-74
2022/06/06 08:48:02;;;;;;;5.22;3.22;;;;;;;;;;5017010;28;20033;-74
2022/06/06 08:50:50;;;;;;;6.93;3.55;;;;;;;;;;5015636;28;20411;-77
2022/06/06 08:53:28;;;;;;;5.05;4.55;;;;;;;;;;5014232;28;20034;-74
2022/06/06 08:56:04;;;;;;;4.95;3.85;;;;;;;;;;5013146;28;20638;-76
2022/06/06 08:58:42;;;;;;;3.60;3.22;;;;;;;;;;5011761;28;20069;-75
2022/06/06 09:01:18;;;;;;;4.95;3.45;;;;;;;;;;5011007;28;20119;-75
2022/06/06 09:04:00;;;;;;;6.55;3.22;;;;;;;;;;5011119;28;20050;-76
2022/06/06 09:06:32;;;;;;;4.78;3.13;;;;;;;;;;5011210;28;20026;-76
2022/06/06 09:09:14;;;;;;;4.15;3.20;;;;;;;;;;5009648;28;20022;-75
2022/06/06 09:11:47;;;;;;;4.57;3.53;;;;;;;;;;5008373;28;20548;-75
2022/06/06 09:14:16;;;;;;;4.10;3.17;;;;;;;;;;5014635;28;20025;-75
2022/06/06 09:16:45;;;;;;;5.90;3.00;;;;;;;;;;5011171;28;20085;-76
2022/06/06 09:19:39;;;;;;;3.85;2.90;;;;;;;;;;5019313;28;20034;-76
2022/06/06 09:22:20;;;;;;;4.85;2.78;;;;;;;;;;5013546;28;20053;-75
2022/06/06 09:25:04;;;;;;;4.65;2.80;;;;;;;;;;5009950;28;20080;-76
2022/06/06 09:27:33;;;;;;;4.88;3.22;;;;;;;;;;5018015;28;20026;-76
2022/06/06 09:30:17;;;;;;;4.13;2.70;;;;;;;;;;5012811;28;20044;-77
2022/06/06 09:33:02;;;;;;;3.20;2.90;;;;;;;;;;5012483;28;20026;-76
2022/06/06 09:35:45;;;;;;;4.87;3.00;;;;;;;;;;5016745;28;20100;-77
2022/06/06 09:38:13;;;;;;;4.20;3.20;;;;;;;;;;5013335;28;20044;-75
2022/06/06 09:40:39;;;;;;;5.13;3.40;;;;;;;;;;5019531;28;20037;-76
2022/06/06 09:43:18;;;;;;;3.58;2.90;;;;;;;;;;5015886;28;20033;-76
2022/06/06 09:46:03;;;;;;;4.75;3.00;;;;;;;;;;5019204;28;20285;-75
2022/06/06 09:48:48;;;;;;;5.57;3.30;;;;;;;;;;5020724;28;20064;-76
2022/06/06 09:51:14;;;;;;;4.30;2.95;;;;;;;;;;5015418;28;20021;-75
2022/06/06 09:59:57;;;;;;;3.53;3.20;;;;;;;;;;5006508;28;20086;-76
2022/06/06 10:02:42;;;;;;;3.70;3.30;;;;;;;;;;5018908;28;20037;-77
2022/06/06 10:05:11;;;;;;;3.38;2.90;;;;;;;;;;5014100;28;20104;-77
2022/06/06 10:07:52;;;;;;;5.13;3.38;;;;;;;;;;5017990;28;20566;-76
2022/06/06 10:10:43;;;;;;;3.35;3.00;;;;;;;;;;5016337;28;20173;-77
2022/06/06 10:13:09;;;;;;;3.83;3.28;;;;;;;;;;5020899;28;20544;-76
2022/06/06 10:15:41;;;;;;;7.65;3.50;;;;;;;;;;5016293;28;20034;-76
2022/06/06 10:18:13;;;;;;;5.53;3.58;;;;;;;;;;5017468;28;20034;-77
2022/06/06 10:20:47;;;;;;;3.20;2.90;;;;;;;;;;5019796;28;20029;-77
2022/06/06 10:23:13;;;;;;;7.28;3.35;;;;;;;;;;5009546;28;20810;-76
2022/06/06 10:25:52;;;;;;;4.50;3.10;;;;;;;;;;5005070;28;20023;-76
2022/06/06 10:28:33;;;;;;;3.70;3.17;;;;;;;;;;5012899;28;20577;-76
2022/06/06 10:31:12;;;;;;;3.30;3.00;;;;;;;;;;5013305;28;20060;-77
2022/06/06 10:34:08;;;;;;;4.07;3.67;;;;;;;;;;5009704;28;20085;-76
2022/06/06 10:36:53;;;;;;;3.10;2.80;;;;;;;;;;5001428;28;20057;-77
2022/06/06 10:39:38;;;;;;;6.80;3.28;;;;;;;;;;5009715;28;20029;-76
2022/06/06 10:42:07;;;;;;;4.17;3.30;;;;;;;;;;5014727;28;20025;-75
2022/06/06 10:44:58;;;;;;;3.33;2.95;;;;;;;;;;5009250;28;20526;-77
2022/06/06 10:47:45;;;;;;;4.28;3.15;;;;;;;;;;5018729;28;20029;-76
2022/06/06 10:50:21;;;;;;;3.40;3.08;;;;;;;;;;5007292;28;20029;-76
2022/06/06 10:53:06;;;;;;;4.38;3.13;;;;;;;;;;5011217;28;20485;-76
2022/06/06 10:55:51;;;;;;;5.07;3.33;;;;;;;;;;5012414;28;20049;-75
2022/06/06 10:58:23;;;;;;;4.53;3.22;;;;;;;;;;5016189;28;20037;-76
2022/06/06 11:01:07;;;;;;;3.22;2.92;;;;;;;;;;5020092;28;20061;-77
2022/06/06 11:03:47;;;;;;;2.90;2.60;;;;;;;;;;5018380;28;20484;-76
2022/06/06 11:06:25;;;;;;;3.92;3.20;;;;;;;;;;5012498;28;20034;-76
2022/06/06 11:08:54;;;;;;;3.47;3.15;;;;;;;;;;5010315;28;20029;-77
2022/06/06 11:11:38;;;;;;;4.15;3.00;;;;;;;;;;5012115;28;20026;-77
2022/06/06 11:14:06;;;;;;;3.40;3.00;;;;;;;;;;5007483;28;20038;-77
2022/06/06 11:16:42;;;;;;;4.88;2.90;;;;;;;;;;5005975;28;20057;-75
2022/06/06 11:19:28;;;;;;;3.53;3.05;;;;;;;;;;5000596;28;20037;-76
2022/06/06 11:22:04;;;;;;;5.50;3.72;;;;;;;;;;4998137;28;20022;-77
2022/06/06 11:24:31;;;;;;;4.53;3.42;;;;;;;;;;5008193;28;20119;-76
2022/06/06 11:27:01;;;;;;;6.57;3.67;;;;;;;;;;5009086;28;20041;-76
2022/06/06 11:29:28;;;;;;;4.20;3.28;;;;;;;;;;5006384;28;20474;-76
2022/06/06 11:32:02;;;;;;;5.50;3.28;;;;;;;;;;5004423;28;20459;-75
2022/06/06 11:34:40;;;;;;;5.05;3.88;;;;;;;;;;5000632;28;20053;-75
2022/06/06 11:37:17;;;;;;;5.53;3.20;;;;;;;;;;5000208;28;20102;-75
2022/06/06 11:39:57;;;;;;;5.05;3.10;;;;;;;;;;4999085;28;20104;-76
2022/06/06 11:42:52;;;;;;;4.13;3.45;;;;;;;;;;5003905;28;20480;-77
2022/06/06 11:45:37;;;;;;;5.80;3.15;;;;;;;;;;4995389;28;20042;-76
2022/06/06 11:48:17;;;;;;;5.03;3.75;;;;;;;;;;5008229;28;20053;-76
2022/06/06 11:50:58;;;;;;;4.43;2.97;;;;;;;;;;5006892;28;20034;-77
2022/06/06 11:53:27;;;;;;;5.82;2.85;;;;;;;;;;5002852;28;20042;-75
2022/06/06 11:56:12;;;;;;;5.32;3.15;;;;;;;;;;5001908;28;20025;-76
2022/06/06 11:58:42;;;;;;;4.25;2.88;;;;;;;;;;5002944;28;20136;-76
2022/06/06 12:01:17;;;;;;;4.90;3.67;;;;;;;;;;5007910;28;20054;-76
2022/06/06 12:03:56;;;;;;;5.03;3.72;;;;;;;;;;5006621;28;20062;-77
2022/06/06 12:06:34;;;;;;;4.95;3.50;;;;;;;;;;5004272;28;20030;-76
2022/06/06 12:09:09;;;;;;;4.97;3.15;;;;;;;;;;5002069;28;20484;-77
2022/06/06 12:11:35;;;;;;;4.43;3.40;;;;;;;;;;5005837;28;20091;-76
2022/06/06 12:14:05;;;;;;;3.85;3.45;;;;;;;;;;5001045;28;20081;-75
2022/06/06 12:16:43;;;;;;;3.15;2.85;;;;;;;;;;5008424;28;20021;-75
2022/06/06 12:19:19;;;;;;;3.13;2.70;;;;;;;;;;5005212;28;20375;-77
2022/06/06 12:22:05;;;;;;;3.05;2.42;;;;;;;;;;5006375;28;20030;-77
2022/06/06 12:24:37;;;;;;;3.83;2.63;;;;;;;;;;5002717;28;20026;-75
2022/06/06 12:27:03;;;;;;;5.00;3.45;;;;;;;;;;5000496;28;20120;-74
2022/06/06 12:29:29;;;;;;;5.53;3.13;;;;;;;;;;4998796;28;20045;-74
2022/06/06 12:32:30;;;;;;;2.80;2.60;;;;;;;;;;4996848;28;20034;-74
2022/06/06 12:35:09;;;;;;;4.30;2.90;;;;;;;;;;4957785;28;20456;-75
2022/06/06 12:37:35;;;;;;;3.65;2.70;;;;;;;;;;4993537;28;20030;-75
2022/06/06 12:40:16;;;;;;;3.78;2.70;;;;;;;;;;4999897;28;20026;-74
2022/06/06 12:42:45;;;;;;;3.40;2.70;;;;;;;;;;5000198;28;20025;-74
2022/06/06 12:45:24;;;;;;;3.30;2.60;;;;;;;;;;4998473;28;20420;-75
2022/06/06 12:48:08;;;;;;;4.95;3.83;;;;;;;;;;5001852;28;20030;-75
2022/06/06 12:50:37;;;;;;;4.65;2.67;;;;;;;;;;5002301;28;20026;-75
2022/06/06 12:53:03;;;;;;;3.40;3.10;;;;;;;;;;5000095;28;20101;-75
2022/06/06 12:56:17;;;;;;;4.03;2.95;;;;;;;;;;5004914;28;20042;-75
2022/06/06 12:58:44;;;;;;;3.35;2.92;;;;;;;;;;5003668;28;20041;-75
2022/06/06 13:01:37;;;;;;;4.10;2.83;;;;;;;;;;5002835;28;20685;-74
2022/06/06 13:04:03;;;;;;;3.28;2.75;;;;;;;;;;5002386;28;20488;-74
2022/06/06 13:06:32;;;;;;;3.58;3.03;;;;;;;;;;5002641;28;20395;-74
2022/06/06 13:09:13;;;;;;;3.00;2.70;;;;;;;;;;5005519;28;20454;-74
2022/06/06 13:11:40;;;;;;;3.58;2.67;;;;;;;;;;5006189;28;20439;-76
2022/06/06 13:14:12;;;;;;;5.50;2.80;;;;;;;;;;5005811;28;20387;-76
2022/06/06 13:16:38;;;;;;;3.72;2.90;;;;;;;;;;5005546;28;20064;-76
2022/06/06 13:19:10;;;;;;;3.38;2.67;;;;;;;;;;5004420;28;20030;-76
2022/06/06 13:21:58;;;;;;;3.03;2.60;;;;;;;;;;5004905;28;20030;-76
2022/06/06 13:24:27;;;;;;;2.90;2.63;;;;;;;;;;5007827;28;20022;-75
2022/06/06 13:26:55;;;;;;;3.70;2.22;;;;;;;;;;5004438;28;20030;-76
2022/06/06 13:29:25;;;;;;;4.63;2.13;;;;;;;;;;5006869;28;20033;-75
2022/06/06 13:32:06;;;;;;;3.83;2.25;;;;;;;;;;5005151;28;20025;-75
2022/06/06 13:34:35;;;;;;;2.10;1.90;;;;;;;;;;5005608;28;20050;-75
2022/06/06 13:37:12;;;;;;;2.25;2.05;;;;;;;;;;5004837;28;20476;-76
2022/06/06 13:39:57;;;;;;;2.55;2.28;;;;;;;;;;5006674;28;20045;-76
2022/06/06 13:42:25;;;;;;;2.75;2.00;;;;;;;;;;5006115;28;20052;-74
2022/06/06 13:45:10;;;;;;;3.50;2.38;;;;;;;;;;5005225;28;20038;-75
2022/06/06 13:48:06;;;;;;;2.70;2.20;;;;;;;;;;5002030;28;20034;-74
2022/06/06 13:50:37;;;;;;;2.83;2.13;;;;;;;;;;4998833;28;20037;-74
2022/06/06 13:53:16;;;;;;;3.85;2.25;;;;;;;;;;5004067;28;20040;-75
2022/06/06 13:55:42;;;;;;;2.40;2.20;;;;;;;;;;5002072;28;20096;-75
2022/06/06 13:58:36;;;;;;;2.75;2.25;;;;;;;;;;5004299;28;20478;-74
2022/06/06 14:01:14;;;;;;;2.30;2.03;;;;;;;;;;5001973;28;20128;-75
2022/06/06 14:03:46;;;;;;;4.20;2.10;;;;;;;;;;5017402;28;20220;-76
2022/06/06 14:06:15;;;;;;;2.50;2.30;;;;;;;;;;5003569;28;20080;-75
2022/06/06 14:09:00;;;;;;;3.08;2.40;;;;;;;;;;5002364;28;20373;-76
2022/06/06 14:11:48;;;;;;;3.25;2.22;;;;;;;;;;5005497;28;20109;-76
2022/06/06 14:14:16;;;;;;;2.78;2.45;;;;;;;;;;5004628;28;20018;-77
2022/06/06 14:16:45;;;;;;;2.30;2.03;;;;;;;;;;5004147;28;20022;-76
2022/06/06 14:19:13;;;;;;;2.58;2.30;;;;;;;;;;5004495;28;20033;-76
2022/06/06 14:21:47;;;;;;;5.28;3.03;;;;;;;;;;4997098;28;20057;-76
2022/06/06 14:24:15;;;;;;;2.40;2.20;;;;;;;;;;4999465;28;20041;-79
2022/06/06 14:26:41;;;;;;;4.15;2.63;;;;;;;;;;5003502;28;20483;-76
2022/06/06 14:29:12;;;;;;;3.25;2.78;;;;;;;;;;5002696;28;20037;-75
2022/06/06 14:31:41;;;;;;;2.60;2.40;;;;;;;;;;5000975;28;20104;-77
2022/06/06 14:34:21;;;;;;;2.38;2.13;;;;;;;;;;5000622;28;20042;-77
2022/06/06 14:37:04;;;;;;;2.50;2.30;;;;;;;;;;4989337;28;20034;-75
2022/06/06 14:39:30;;;;;;;2.13;1.92;;;;;;;;;;5000668;28;20642;-76
2022/06/06 14:41:56;;;;;;;2.42;1.92;;;;;;;;;;5002922;28;20025;-76
2022/06/06 14:44:31;;;;;;;4.28;2.08;;;;;;;;;;5002242;28;20116;-76
2022/06/06 14:47:08;;;;;;;2.17;1.98;;;;;;;;;;5000962;28;20488;-77
2022/06/06 14:49:36;;;;;;;2.10;1.90;;;;;;;;;;5000694;28;20030;-77
2022/06/06 14:52:20;;;;;;;2.30;2.05;;;;;;;;;;5001221;28;20040;-76
2022/06/06 14:54:51;;;;;;;2.20;2.00;;;;;;;;;;5000733;28;20903;-77
2022/06/06 14:57:19;;;;;;;2.10;1.90;;;;;;;;;;5004145;28;20060;-76
2022/06/06 14:59:50;;;;;;;3.70;2.00;;;;;;;;;;5004795;28;20037;-76
2022/06/06 15:02:22;;;;;;;1.90;1.80;;;;;;;;;;5005310;28;20495;-77
2022/06/06 15:04:48;;;;;;;3.63;2.00;;;;;;;;;;5002774;28;20595;-78
2022/06/06 15:07:16;;;;;;;2.70;1.77;;;;;;;;;;5000649;28;20045;-77
2022/06/06 15:09:49;;;;;;;2.53;1.80;;;;;;;;;;5001109;28;20026;-77
2022/06/06 15:12:27;;;;;;;2.75;1.88;;;;;;;;;;5003328;28;20049;-77
2022/06/06 15:15:00;;;;;;;2.25;1.73;;;;;;;;;;5004833;28;20137;-76
2022/06/06 15:17:28;;;;;;;2.33;1.70;;;;;;;;;;5002644;28;20388;-77
2022/06/06 15:20:03;;;;;;;2.58;1.90;;;;;;;;;;5005099;28;20030;-77
2022/06/06 15:22:31;;;;;;;1.80;1.70;;;;;;;;;;5002246;28;20464;-78
2022/06/06 15:24:58;;;;;;;1.92;1.80;;;;;;;;;;5004662;28;20030;-77
2022/06/06 15:27:24;;;;;;;2.08;1.88;;;;;;;;;;5001803;28;20030;-77
2022/06/06 15:29:52;;;;;;;1.55;1.45;;;;;;;;;;5005059;28;20033;-77
2022/06/06 15:32:37;;;;;;;2.05;1.85;;;;;;;;;;5006541;28;20084;-78
2022/06/06 15:35:08;;;;;;;2.30;1.88;;;;;;;;;;5004396;28;20050;-76
2022/06/06 15:38:00;;;;;;;2.00;1.80;;;;;;;;;;5003181;28;20029;-78
2022/06/06 15:40:26;;;;;;;2.03;1.80;;;;;;;;;;4988065;28;20057;-77
2022/06/06 15:43:06;;;;;;;2.60;2.00;;;;;;;;;;5002351;28;20476;-76